Time;durP1;ratioP1;P1;durP2;ratioP2;P2;SDS_P1;SDS_P2;PMS_P1;PMS_P2;Temp;Humidity;BMP_temperature;BMP_pressure;BME280_temperature;BME280_humidity;BME280_pressure;Samples;Min_cycle;Max_cycle;Signal;HPM_P1;HPM_P2
2024/03/05 00:01:37;;;;;;;14.43;8.48;;;;;;;0.70;100.00;102343.44;5067660;28;20023;-71
2024/03/05 00:04:05;;;;;;;15.73;9.13;;;;;;;0.66;100.00;102341.06;5081195;28;20122;-71
2024/03/05 00:06:32;;;;;;;15.00;8.45;;;;;;;0.45;100.00;102319.44;5084218;28;20074;-71
2024/03/05 00:08:59;;;;;;;16.08;9.20;;;;;;;0.58;100.00;102352.16;5081615;28;20084;-71
2024/03/05 00:11:25;;;;;;;12.18;8.85;;;;;;;0.54;100.00;102361.25;5083635;28;20035;-71
2024/03/05 00:13:54;;;;;;;16.20;9.82;;;;;;;0.50;100.00;102356.22;5065680;28;20067;-70
2024/03/05 00:16:20;;;;;;;15.25;9.52;;;;;;;0.49;100.00;102358.03;5061692;28;20036;-71
2024/03/05 00:18:48;;;;;;;18.77;10.18;;;;;;;0.44;100.00;102357.47;5078889;28;20024;-71
2024/03/05 00:21:14;;;;;;;18.35;9.93;;;;;;;0.44;100.00;102371.56;5080163;28;20032;-70
2024/03/05 00:23:39;;;;;;;15.18;9.20;;;;;;;0.38;100.00;102353.41;5080267;28;20028;-71
2024/03/05 00:26:05;;;;;;;20.52;10.43;;;;;;;0.42;100.00;102367.31;5080707;28;20090;-71
2024/03/05 00:28:32;;;;;;;17.25;10.38;;;;;;;0.26;100.00;102346.22;5081258;28;20031;-71
2024/03/05 00:30:57;;;;;;;17.95;10.68;;;;;;;0.23;100.00;102341.09;5083255;28;20031;-70
2024/03/05 00:33:24;;;;;;;16.27;10.38;;;;;;;0.40;100.00;102375.34;5080969;28;20052;-71
2024/03/05 00:35:50;;;;;;;15.77;10.13;;;;;;;0.40;100.00;102380.66;5082743;28;20052;-70
2024/03/05 00:38:15;;;;;;;14.05;10.68;;;;;;;0.38;100.00;102385.19;5084255;28;20061;-71
2024/03/05 00:40:41;;;;;;;17.35;10.60;;;;;;;0.34;100.00;102378.38;5070143;28;20082;-70
2024/03/05 00:43:06;;;;;;;16.88;11.27;;;;;;;0.31;100.00;102377.72;5069185;28;20106;-70
2024/03/05 00:45:32;;;;;;;17.30;11.32;;;;;;;0.31;100.00;102393.59;5070039;28;20088;-71
2024/03/05 00:47:57;;;;;;;22.25;11.98;;;;;;;0.28;100.00;102383.19;5069924;28;20056;-71
2024/03/05 00:50:23;;;;;;;20.50;10.63;;;;;;;0.29;100.00;102390.19;5086860;28;20051;-71
2024/03/05 00:52:49;;;;;;;20.70;11.55;;;;;;;0.16;100.00;102363.59;5086932;28;20094;-71
2024/03/05 00:55:15;;;;;;;22.30;11.93;;;;;;;0.26;100.00;102385.91;5086400;28;20119;-71
2024/03/05 00:57:41;;;;;;;22.63;11.73;;;;;;;0.07;100.00;102359.75;5088522;28;20032;-71
2024/03/05 01:00:07;;;;;;;21.20;12.07;;;;;;;0.25;100.00;102388.69;5049850;28;20387;-71
2024/03/05 01:02:33;;;;;;;19.50;11.77;;;;;;;0.10;100.00;102371.91;5060910;28;20123;-71
2024/03/05 01:04:58;;;;;;;21.50;11.73;;;;;;;0.18;100.00;102393.50;5048368;28;20108;-71
2024/03/05 01:07:24;;;;;;;17.52;12.30;;;;;;;0.17;100.00;102392.66;5064061;28;20048;-71
2024/03/05 01:09:49;;;;;;;21.90;12.10;;;;;;;0.16;100.00;102390.06;5063130;28;20136;-71
2024/03/05 01:12:16;;;;;;;25.20;12.60;;;;;;;0.10;100.00;102395.72;5063750;28;20040;-71
2024/03/05 01:14:41;;;;;;;17.15;11.07;;;;;;;0.10;100.00;102403.66;5061506;28;20047;-71
2024/03/05 01:17:08;;;;;;;18.52;12.80;;;;;;;0.08;100.00;102395.00;5058248;28;20045;-71
2024/03/05 01:19:34;;;;;;;21.23;12.35;;;;;;;0.00;100.00;102384.88;5062938;28;20525;-71
2024/03/05 01:22:01;;;;;;;19.95;12.10;;;;;;;0.05;100.00;102392.53;5064931;28;20025;-70
2024/03/05 01:24:27;;;;;;;18.27;13.32;;;;;;;0.04;100.00;102396.13;5065206;28;20090;-71
2024/03/05 01:26:53;;;;;;;20.80;12.75;;;;;;;0.07;100.00;102406.53;5064553;28;20029;-70
2024/03/05 01:29:21;;;;;;;27.45;12.73;;;;;;;0.04;100.00;102402.25;5064290;28;20061;-70
2024/03/05 01:31:58;;;;;;;21.98;12.20;;;;;;;0.03;100.00;102408.47;5064830;28;20025;-71
2024/03/05 01:34:24;;;;;;;20.75;13.35;;;;;;;0.01;100.00;102398.94;5065576;28;20021;-71
2024/03/05 01:36:50;;;;;;;21.92;12.63;;;;;;;0.02;100.00;102404.13;5065567;28;20455;-70
2024/03/05 01:39:17;;;;;;;21.80;12.18;;;;;;;0.04;100.00;102390.84;5047610;28;20095;-71
2024/03/05 01:41:44;;;;;;;19.90;12.55;;;;;;;0.03;100.00;102400.53;5047847;28;20122;-71
2024/03/05 01:44:10;;;;;;;20.17;12.55;;;;;;;0.02;100.00;102398.00;5047508;28;20399;-70
2024/03/05 01:46:36;;;;;;;19.65;12.43;;;;;;;0.03;100.00;102399.69;5064198;28;20029;-71
2024/03/05 01:49:04;;;;;;;18.85;12.20;;;;;;;-0.01;100.00;102394.59;5065573;28;20075;-71
2024/03/05 01:51:31;;;;;;;22.92;12.32;;;;;;;0.01;100.00;102396.31;5034113;28;20040;-71
2024/03/05 01:53:56;;;;;;;20.25;12.88;;;;;;;0.02;100.00;102393.56;5049166;28;20036;-71
2024/03/05 01:56:22;;;;;;;18.85;12.25;;;;;;;-0.02;100.00;102392.03;5068097;28;20028;-71
2024/03/05 01:58:47;;;;;;;16.77;11.85;;;;;;;0.02;100.00;102398.84;5066448;28;20020;-70
2024/03/05 02:01:13;;;;;;;20.02;12.57;;;;;;;-0.11;100.00;102380.19;5065726;28;20523;-71
2024/03/05 02:03:40;;;;;;;21.15;12.60;;;;;;;-0.20;100.00;102366.66;5046600;28;20078;-70
2024/03/05 02:06:07;;;;;;;17.42;11.30;;;;;;;-0.03;100.00;102393.00;5063333;28;20128;-71
2024/03/05 02:08:34;;;;;;;17.13;11.68;;;;;;;-0.13;100.00;102382.09;5063982;28;20060;-70
2024/03/05 02:11:00;;;;;;;19.95;11.30;;;;;;;-0.03;100.00;102393.84;5065220;28;20025;-71
2024/03/05 02:13:25;;;;;;;18.02;12.35;;;;;;;-0.02;100.00;102387.59;5064034;28;20032;-71
2024/03/05 02:15:51;;;;;;;19.80;11.77;;;;;;;-0.05;100.00;102381.63;5063395;28;20080;-70
2024/03/05 02:18:16;;;;;;;19.15;11.90;;;;;;;-0.09;100.00;102390.72;5065561;28;20116;-71
2024/03/05 02:20:43;;;;;;;19.38;11.88;;;;;;;-0.12;100.00;102381.16;5064902;28;20029;-70
2024/03/05 02:23:09;;;;;;;18.10;12.07;;;;;;;-0.11;100.00;102382.84;5032039;28;20051;-70
2024/03/05 02:25:35;;;;;;;18.70;11.35;;;;;;;-0.11;100.00;102388.13;5065514;28;20025;-70
2024/03/05 02:28:02;;;;;;;18.35;11.63;;;;;;;-0.11;100.00;102380.19;5063476;28;20111;-71
2024/03/05 02:30:31;;;;;;;17.23;10.25;;;;;;;-0.07;100.00;102388.81;5063826;28;20029;-70
2024/03/05 02:32:59;;;;;;;18.92;10.98;;;;;;;-0.13;100.00;102378.56;5064450;28;20111;-71
2024/03/05 02:35:24;;;;;;;17.25;10.63;;;;;;;-0.16;100.00;102378.78;5063764;28;20029;-71
2024/03/05 02:37:50;;;;;;;17.83;11.48;;;;;;;-0.22;100.00;102387.94;5065118;28;20096;-71
2024/03/05 02:40:15;;;;;;;17.45;10.88;;;;;;;-0.23;100.00;102383.59;5065106;28;20029;-71
2024/03/05 02:42:42;;;;;;;18.77;11.23;;;;;;;-0.24;100.00;102388.00;5047616;28;20505;-71
2024/03/05 02:45:10;;;;;;;15.30;9.70;;;;;;;-0.24;100.00;102389.81;5064805;28;20053;-71
2024/03/05 02:47:39;;;;;;;15.57;11.18;;;;;;;-0.24;100.00;102392.44;5064418;28;20503;-71
2024/03/05 02:50:07;;;;;;;17.23;10.80;;;;;;;-0.19;100.00;102400.13;5047236;28;20052;-70
2024/03/05 02:52:33;;;;;;;18.63;11.18;;;;;;;-0.23;100.00;102396.81;5063938;28;20032;-71
2024/03/05 02:54:58;;;;;;;14.43;10.38;;;;;;;-0.37;100.00;102371.16;5064922;28;20157;-71
2024/03/05 02:57:28;;;;;;;17.20;10.80;;;;;;;-0.35;100.00;102368.44;5064441;28;20056;-70
2024/03/05 02:59:53;;;;;;;13.68;8.63;;;;;;;-0.18;100.00;102400.03;5063505;28;20033;-71
2024/03/05 03:02:22;;;;;;;16.02;9.98;;;;;;;-0.21;100.00;102386.97;5062231;28;20117;-70
2024/03/05 03:04:51;;;;;;;14.23;9.85;;;;;;;-0.36;100.00;102369.38;5063948;28;20036;-73
2024/03/05 03:07:17;;;;;;;14.90;9.93;;;;;;;-0.24;100.00;102397.72;5063215;28;20048;-70
2024/03/05 03:09:47;;;;;;;14.40;10.18;;;;;;;-0.28;100.00;102396.22;5065038;28;20054;-70
2024/03/05 03:12:12;;;;;;;15.65;9.93;;;;;;;-0.25;100.00;102393.41;5065532;28;20052;-70
2024/03/05 03:14:45;;;;;;;18.23;9.90;;;;;;;-0.25;100.00;102393.41;5065301;28;20032;-70
2024/03/05 03:17:18;;;;;;;13.70;9.35;;;;;;;-0.20;100.00;102388.66;5065384;28;20040;-70
2024/03/05 03:19:43;;;;;;;14.25;10.25;;;;;;;-0.25;100.00;102396.03;5049163;28;20033;-70
2024/03/05 03:22:08;;;;;;;16.27;9.45;;;;;;;-0.19;100.00;102394.84;5048842;28;20013;-70
2024/03/05 03:24:34;;;;;;;15.07;9.93;;;;;;;-0.17;100.00;102399.06;5065694;28;20055;-70
2024/03/05 03:27:00;;;;;;;15.75;9.63;;;;;;;-0.19;100.00;102394.84;5062295;28;20043;-70
2024/03/05 03:29:26;;;;;;;16.38;9.75;;;;;;;-0.35;100.00;102361.34;5059267;28;20052;-73
2024/03/05 03:31:55;;;;;;;14.77;9.25;;;;;;;-0.27;100.00;102376.75;5028415;28;20029;-70
2024/03/05 03:34:20;;;;;;;12.25;9.55;;;;;;;-0.21;100.00;102375.56;5063621;28;20076;-70
2024/03/05 03:36:46;;;;;;;15.38;9.68;;;;;;;-0.47;100.00;102341.75;5047357;28;20032;-70
2024/03/05 03:39:11;;;;;;;14.20;9.27;;;;;;;-0.28;100.00;102380.34;5065372;28;20049;-70
2024/03/05 03:41:39;;;;;;;12.88;8.18;;;;;;;-0.28;100.00;102388.28;5065855;28;20079;-70
2024/03/05 03:44:06;;;;;;;14.63;9.45;;;;;;;-0.28;100.00;102380.34;5063913;28;20033;-70
2024/03/05 03:46:34;;;;;;;14.38;9.88;;;;;;;-0.27;100.00;102374.09;5065697;28;20032;-70
2024/03/05 03:49:07;;;;;;;12.80;9.05;;;;;;;-0.27;100.00;102390.81;5063829;28;20057;-72
2024/03/05 03:51:33;;;;;;;13.07;8.07;;;;;;;-0.41;100.00;102355.56;5064205;28;20056;-70
2024/03/05 03:53:59;;;;;;;14.23;9.45;;;;;;;-0.25;100.00;102381.00;5065791;28;20039;-71
2024/03/05 03:56:25;;;;;;;14.60;9.18;;;;;;;-0.25;100.00;102385.47;5050903;28;20052;-71
2024/03/05 03:58:50;;;;;;;13.52;8.75;;;;;;;-0.28;100.00;102377.69;5069132;28;20037;-71
2024/03/05 04:01:15;;;;;;;11.48;8.43;;;;;;;-0.29;100.00;102383.94;5067879;28;20033;-71
2024/03/05 04:03:41;;;;;;;13.50;8.52;;;;;;;-0.26;100.00;102389.06;5067631;28;20033;-71
2024/03/05 04:06:06;;;;;;;15.73;9.13;;;;;;;-0.28;100.00;102389.13;5066981;28;20044;-70
2024/03/05 04:08:33;;;;;;;12.63;8.65;;;;;;;-0.26;100.00;102381.13;5048923;28;20573;-71
2024/03/05 04:11:00;;;;;;;14.50;8.18;;;;;;;-0.35;100.00;102364.00;5066368;28;20026;-70
2024/03/05 04:13:26;;;;;;;17.25;8.85;;;;;;;-0.27;100.00;102385.53;5053231;28;20025;-70
2024/03/05 04:15:52;;;;;;;13.23;8.40;;;;;;;-0.28;100.00;102385.63;5070942;28;20059;-72
2024/03/05 04:18:18;;;;;;;13.23;8.80;;;;;;;-0.28;100.00;102378.56;5071464;28;20578;-70
2024/03/05 04:20:44;;;;;;;12.48;8.38;;;;;;;-0.26;100.00;102392.56;5069857;28;20511;-70
2024/03/05 04:23:11;;;;;;;12.18;7.47;;;;;;;-0.24;100.00;102381.88;5063972;28;20041;-70
2024/03/05 04:25:39;;;;;;;12.18;9.02;;;;;;;-0.27;100.00;102371.47;5065717;28;20029;-70
2024/03/05 04:28:12;;;;;;;13.80;9.13;;;;;;;-0.22;100.00;102382.63;5066201;28;20509;-71
2024/03/05 04:30:38;;;;;;;14.40;8.82;;;;;;;-0.41;100.00;102348.47;5066465;28;20021;-70
2024/03/05 04:33:05;;;;;;;10.48;7.38;;;;;;;-0.21;100.00;102373.75;5067497;28;20021;-70
2024/03/05 04:35:31;;;;;;;14.18;8.68;;;;;;;-0.15;100.00;102376.03;5052102;28;20029;-70
2024/03/05 04:37:57;;;;;;;12.63;9.00;;;;;;;-0.13;100.00;102390.03;5067155;28;20066;-70
2024/03/05 04:40:22;;;;;;;13.07;7.68;;;;;;;-0.19;100.00;102389.56;5052216;28;20041;-70
2024/03/05 04:42:49;;;;;;;13.18;8.80;;;;;;;-0.18;100.00;102384.16;5055860;28;20033;-71
2024/03/05 04:45:15;;;;;;;14.57;8.40;;;;;;;-0.42;100.00;102348.56;5048782;28;20029;-71
2024/03/05 04:47:40;;;;;;;14.15;8.27;;;;;;;-0.12;100.00;102378.50;5049591;28;20029;-70
2024/03/05 04:50:06;;;;;;;12.45;7.60;;;;;;;-0.15;100.00;102369.91;5064415;28;20029;-70
2024/03/05 04:52:33;;;;;;;12.30;8.20;;;;;;;-0.12;100.00;102383.78;5032952;28;20029;-70
2024/03/05 04:54:58;;;;;;;15.15;8.63;;;;;;;-0.08;100.00;102376.53;5068724;28;20029;-70
2024/03/05 04:57:24;;;;;;;14.15;7.32;;;;;;;-0.14;100.00;102366.31;5068895;28;20096;-70
2024/03/05 04:59:49;;;;;;;11.93;8.73;;;;;;;-0.12;100.00;102369.72;5067685;28;20033;-70
2024/03/05 05:02:15;;;;;;;13.27;7.95;;;;;;;-0.12;100.00;102375.00;5073919;28;20075;-70
2024/03/05 05:04:41;;;;;;;12.82;8.57;;;;;;;-0.17;100.00;102361.19;5073228;28;20028;-71
2024/03/05 05:07:07;;;;;;;13.88;8.38;;;;;;;-0.38;100.00;102324.50;5072477;28;20044;-72
2024/03/05 05:09:41;;;;;;;10.80;7.80;;;;;;;-0.10;100.00;102381.91;5075190;28;20036;-71
2024/03/05 05:12:06;;;;;;;13.07;7.80;;;;;;;-0.10;100.00;102383.69;5069710;28;20045;-72
2024/03/05 05:14:33;;;;;;;13.93;8.93;;;;;;;-0.12;100.00;102382.94;5072164;28;20048;-73
2024/03/05 05:17:01;;;;;;;14.35;8.80;;;;;;;-0.09;100.00;102383.63;5067891;28;20395;-71
2024/03/05 05:19:27;;;;;;;13.45;8.68;;;;;;;-0.11;100.00;102390.78;5074371;28;20029;-72
2024/03/05 05:21:52;;;;;;;14.32;7.82;;;;;;;-0.08;100.00;102389.75;5069286;28;20052;-74
2024/03/05 05:24:18;;;;;;;11.88;7.50;;;;;;;-0.22;100.00;102366.75;5073007;28;20009;-73
2024/03/05 05:26:44;;;;;;;11.52;8.38;;;;;;;-0.05;100.00;102398.34;5055421;28;20052;-70
2024/03/05 05:29:10;;;;;;;14.90;8.48;;;;;;;-0.10;100.00;102392.50;5059948;28;20028;-71
2024/03/05 05:31:36;;;;;;;14.52;8.60;;;;;;;-0.15;100.00;102393.72;5061710;28;20029;-73
2024/03/05 05:34:02;;;;;;;13.32;8.00;;;;;;;-0.05;100.00;102406.28;5066593;28;20052;-73
2024/03/05 05:36:28;;;;;;;12.20;8.30;;;;;;;-0.06;100.00;102412.53;5060428;28;20029;-72
2024/03/05 05:38:54;;;;;;;15.77;8.57;;;;;;;-0.06;100.00;102415.19;5070638;28;20029;-69
2024/03/05 05:41:19;;;;;;;12.55;7.53;;;;;;;-0.05;100.00;102418.69;5069708;28;20040;-68
2024/03/05 05:43:45;;;;;;;11.07;7.07;;;;;;;-0.01;100.00;102414.91;5066598;28;20048;-70
2024/03/05 05:46:17;;;;;;;15.55;8.55;;;;;;;0.01;100.00;102420.13;5066385;28;20040;-71
2024/03/05 05:48:55;;;;;;;11.65;7.63;;;;;;;0.01;100.00;102418.31;5070145;28;20055;-70
2024/03/05 05:51:22;;;;;;;12.10;8.23;;;;;;;-0.02;100.00;102419.34;5073161;28;20045;-71
2024/03/05 05:53:51;;;;;;;11.55;7.38;;;;;;;-0.11;100.00;102396.06;5055724;28;20100;-72
2024/03/05 05:56:17;;;;;;;12.70;7.90;;;;;;;0.05;100.00;102422.47;5071641;28;20046;-71
2024/03/05 05:58:43;;;;;;;14.80;8.25;;;;;;;0.05;100.00;102430.44;5046919;28;20025;-68
2024/03/05 06:14:36;;;;;;;12.75;7.65;;;;;;;0.07;100.00;102456.81;5086197;22;20056;-71
2024/03/05 06:17:02;;;;;;;6.80;5.57;;;;;;;-0.07;100.00;102433.78;5053089;28;20041;-72
2024/03/05 06:19:28;;;;;;;13.35;8.15;;;;;;;0.10;100.00;102461.91;5077545;28;20021;-71
2024/03/05 06:21:56;;;;;;;13.25;8.15;;;;;;;0.12;100.00;102460.03;5093458;28;20131;-72
2024/03/05 06:24:23;;;;;;;12.75;8.70;;;;;;;0.08;100.00;102462.00;5079570;28;20058;-73
2024/03/05 06:26:49;;;;;;;11.88;6.90;;;;;;;0.15;100.00;102465.16;5094908;28;20048;-72
2024/03/05 06:29:14;;;;;;;14.00;6.60;;;;;;;0.18;100.00;102462.31;5088828;28;20044;-72
2024/03/05 06:31:40;;;;;;;10.52;7.28;;;;;;;0.18;100.00;102457.88;5090504;28;20029;-74
2024/03/05 06:34:05;;;;;;;9.93;7.18;;;;;;;0.23;100.00;102470.81;5072224;28;20029;-72
2024/03/05 06:36:34;;;;;;;7.88;5.88;;;;;;;0.18;100.00;102459.66;5080453;28;20084;-73
2024/03/05 06:39:08;;;;;;;8.68;6.65;;;;;;;0.12;100.00;102460.88;5073518;28;20040;-71
2024/03/05 06:41:34;;;;;;;10.70;6.57;;;;;;;0.07;100.00;102422.41;5070202;28;20037;-71
2024/03/05 06:44:10;;;;;;;10.75;7.28;;;;;;;0.25;100.00;102476.88;5063436;28;20033;-71
2024/03/05 06:46:41;;;;;;;9.18;6.97;;;;;;;0.20;100.00;102476.31;5065117;28;20071;-73
2024/03/05 06:49:14;;;;;;;9.93;7.18;;;;;;;0.06;100.00;102437.41;5082103;28;20025;-71
2024/03/05 06:51:53;;;;;;;10.48;7.07;;;;;;;0.21;100.00;102483.31;5063985;28;20020;-71
2024/03/05 06:57:08;;;;;;;9.35;6.95;;;;;;;0.17;100.00;102482.66;5070042;28;20024;-71
2024/03/05 06:59:34;;;;;;;9.80;6.72;;;;;;;0.15;100.00;102463.34;5067738;28;20432;-73
2024/03/05 07:01:59;;;;;;;11.70;7.43;;;;;;;0.21;100.00;102499.19;5070461;28;20063;-72
2024/03/05 07:04:27;;;;;;;10.27;7.00;;;;;;;0.29;100.00;102489.00;5080385;28;20032;-71
2024/03/05 07:06:54;;;;;;;10.57;7.53;;;;;;;0.30;100.00;102484.53;5078552;28;20040;-71
2024/03/05 07:09:20;;;;;;;9.93;7.43;;;;;;;0.33;100.00;102487.91;5054451;28;20123;-72
2024/03/05 07:11:47;;;;;;;9.35;6.75;;;;;;;0.37;100.00;102480.63;5066825;28;20056;-72
2024/03/05 07:14:13;;;;;;;7.90;5.85;;;;;;;0.34;100.00;102478.16;5059457;28;20140;-71
2024/03/05 07:16:38;;;;;;;8.80;6.78;;;;;;;0.38;100.00;102498.19;5068936;28;20045;-71
2024/03/05 07:19:04;;;;;;;9.90;6.75;;;;;;;0.45;100.00;102489.78;5070674;28;20033;-73
2024/03/05 07:21:30;;;;;;;8.38;6.22;;;;;;;0.37;100.00;102507.09;5067007;28;20090;-74
2024/03/05 07:23:58;;;;;;;11.00;7.07;;;;;;;0.41;100.00;102480.31;5050483;28;20032;-73
2024/03/05 07:26:24;;;;;;;8.93;6.07;;;;;;;0.39;100.00;102468.13;5068491;28;20088;-75
2024/03/05 07:28:51;;;;;;;8.88;6.47;;;;;;;0.43;100.00;102480.22;5068091;28;20036;-72
2024/03/05 07:31:18;;;;;;;8.52;6.13;;;;;;;0.47;100.00;102495.00;5066496;28;20055;-72
2024/03/05 07:33:43;;;;;;;9.60;6.43;;;;;;;0.48;100.00;102491.41;5069612;28;20031;-72
2024/03/05 07:36:09;;;;;;;9.27;6.03;;;;;;;0.54;100.00;102482.25;5064086;28;20483;-73
2024/03/05 07:38:34;;;;;;;9.48;6.97;;;;;;;0.65;100.00;102470.03;5048957;28;20060;-74
2024/03/05 07:41:00;;;;;;;9.70;6.72;;;;;;;0.55;100.00;102460.94;5055958;28;20032;-72
2024/03/05 07:43:25;;;;;;;9.63;6.50;;;;;;;0.70;100.00;102489.16;5064742;28;20053;-72
2024/03/05 07:45:51;;;;;;;9.63;6.80;;;;;;;0.83;100.00;102489.28;5067236;28;20056;-74
2024/03/05 07:48:16;;;;;;;9.40;6.50;;;;;;;0.87;100.00;102490.78;5078535;28;20272;-71
2024/03/05 07:50:42;;;;;;;11.18;7.20;;;;;;;0.99;100.00;102486.50;5069167;28;20021;-71
2024/03/05 07:53:08;;;;;;;11.85;7.10;;;;;;;1.05;100.00;102488.78;5069845;28;20097;-71
2024/03/05 07:55:39;;;;;;;11.20;6.70;;;;;;;1.07;100.00;102486.03;5068736;28;20234;-71
2024/03/05 07:58:08;;;;;;;10.68;6.97;;;;;;;1.06;100.00;102468.41;5069867;28;20047;-70
2024/03/05 08:00:35;;;;;;;9.23;6.72;;;;;;;1.14;100.00;102500.63;5063842;28;20106;-70
2024/03/05 08:03:00;;;;;;;10.85;5.50;;;;;;;1.13;100.00;102497.13;5050962;28;20041;-69
2024/03/05 08:05:26;;;;;;;10.60;6.03;;;;;;;0.99;100.00;102496.25;5066293;28;20079;-73
2024/03/05 08:07:56;;;;;;;9.50;5.53;;;;;;;1.06;100.00;102497.56;5057756;28;20033;-73
2024/03/05 08:10:23;;;;;;;11.93;6.55;;;;;;;1.10;100.00;102499.13;5061247;28;20045;-71
2024/03/05 08:12:51;;;;;;;6.82;5.75;;;;;;;1.00;100.00;102501.47;5066430;28;20484;-71
2024/03/05 08:15:18;;;;;;;8.32;6.13;;;;;;;1.01;100.00;102505.81;5062937;28;20264;-70
2024/03/05 08:17:46;;;;;;;8.27;5.95;;;;;;;1.00;100.00;102504.13;5057466;28;20025;-69
2024/03/05 08:20:19;;;;;;;8.20;6.13;;;;;;;0.90;100.00;102480.00;5059717;28;20047;-69
2024/03/05 08:22:46;;;;;;;10.73;5.40;;;;;;;1.01;100.00;102507.63;5079420;28;20029;-70
2024/03/05 08:25:15;;;;;;;7.93;5.80;;;;;;;0.99;100.00;102510.34;5064218;28;20044;-70
2024/03/05 08:27:45;;;;;;;8.85;5.97;;;;;;;1.09;100.00;102511.53;5082324;28;20674;-71
2024/03/05 08:30:16;;;;;;;7.93;5.70;;;;;;;1.18;100.00;102510.91;5064467;28;20288;-70
2024/03/05 08:32:42;;;;;;;8.35;5.40;;;;;;;1.26;100.00;102504.28;5066121;28;20123;-69
2024/03/05 08:35:11;;;;;;;7.72;5.57;;;;;;;1.31;100.00;102500.41;5064530;28;20024;-69
2024/03/05 08:37:41;;;;;;;7.22;5.25;;;;;;;1.41;100.00;102508.63;5069353;28;20025;-70
2024/03/05 08:40:14;;;;;;;6.78;5.60;;;;;;;1.30;100.00;102489.91;5069749;28;20044;-71
2024/03/05 08:42:44;;;;;;;10.77;5.90;;;;;;;1.25;100.00;102514.03;5069061;28;20040;-72
2024/03/05 08:45:21;;;;;;;7.00;5.35;;;;;;;1.06;100.00;102526.72;5070579;28;20272;-71
2024/03/05 08:47:48;;;;;;;7.35;5.40;;;;;;;1.06;100.00;102529.38;5070762;28;20033;-70
2024/03/05 08:50:14;;;;;;;6.57;5.13;;;;;;;1.06;100.00;102519.66;5086452;28;20017;-70
2024/03/05 08:52:40;;;;;;;7.82;5.38;;;;;;;1.15;100.00;102513.75;5069120;28;20040;-71
2024/03/05 08:55:08;;;;;;;7.75;5.32;;;;;;;0.98;100.00;102484.81;5062071;28;20087;-70
2024/03/05 08:57:37;;;;;;;7.13;5.00;;;;;;;1.24;100.00;102515.00;5052120;28;20017;-71
2024/03/05 09:00:08;;;;;;;7.28;5.18;;;;;;;1.06;100.00;102513.47;5055097;28;20087;-72
2024/03/05 09:02:34;;;;;;;8.82;5.10;;;;;;;0.97;100.00;102541.44;5073472;28;20488;-71
2024/03/05 09:05:02;;;;;;;5.72;4.55;;;;;;;1.09;100.00;102527.44;5068553;28;20028;-71
2024/03/05 09:07:28;;;;;;;6.45;4.35;;;;;;;1.23;100.00;102526.56;5075079;28;20042;-71
2024/03/05 09:09:53;;;;;;;5.22;4.07;;;;;;;1.26;100.00;102523.72;5074103;28;20056;-70
2024/03/05 09:12:19;;;;;;;5.13;4.03;;;;;;;1.23;100.00;102531.88;5073380;28;20013;-72
2024/03/05 09:14:44;;;;;;;6.63;4.60;;;;;;;1.36;100.00;102531.94;5072975;28;20101;-72
2024/03/05 09:17:10;;;;;;;8.32;4.47;;;;;;;1.42;100.00;102526.22;5073061;28;20081;-70
2024/03/05 09:19:36;;;;;;;5.93;4.88;;;;;;;1.44;100.00;102542.91;5074169;28;20016;-72
2024/03/05 09:22:05;;;;;;;5.88;3.88;;;;;;;1.42;100.00;102507.66;5074460;28;20035;-72
2024/03/05 09:24:31;;;;;;;5.35;3.90;;;;;;;1.38;100.00;102530.88;5089151;28;20048;-70
2024/03/05 09:26:59;;;;;;;8.93;5.05;;;;;;;1.41;100.00;102505.97;5073212;28;20047;-71
2024/03/05 09:29:25;;;;;;;9.98;3.97;;;;;;;1.56;100.00;102522.72;5074872;28;20040;-69
2024/03/05 09:31:50;;;;;;;6.22;4.40;;;;;;;1.75;100.00;102519.72;5072689;28;20004;-68
2024/03/05 09:34:16;;;;;;;7.90;3.95;;;;;;;1.70;100.00;102522.69;5088653;28;20031;-70
2024/03/05 09:36:42;;;;;;;5.40;4.68;;;;;;;1.68;100.00;102526.38;5073990;28;20055;-72
2024/03/05 09:39:09;;;;;;;8.32;5.18;;;;;;;1.74;100.00;102532.13;5056977;28;20025;-71
2024/03/05 09:41:44;;;;;;;5.80;4.38;;;;;;;1.81;100.00;102532.59;5088601;28;20059;-71
2024/03/05 09:44:11;;;;;;;6.40;4.63;;;;;;;1.93;100.00;102525.66;5069654;28;20037;-70
2024/03/05 09:46:39;;;;;;;9.50;5.00;;;;;;;1.80;100.00;102526.44;5059324;28;20062;-70
2024/03/05 09:49:10;;;;;;;6.32;4.63;;;;;;;1.83;100.00;102497.03;5055928;28;20032;-71
2024/03/05 09:51:39;;;;;;;6.50;4.80;;;;;;;2.01;100.00;102533.94;5070809;28;20033;-71
2024/03/05 09:54:07;;;;;;;7.70;5.22;;;;;;;2.02;100.00;102535.63;5052702;28;20029;-70
2024/03/05 09:56:36;;;;;;;4.95;3.72;;;;;;;1.96;100.00;102536.91;5088090;28;20033;-71
2024/03/05 09:59:04;;;;;;;6.63;4.53;;;;;;;1.93;100.00;102499.09;5071384;28;20028;-71
2024/03/05 10:01:32;;;;;;;6.80;4.38;;;;;;;1.99;100.00;102536.72;5070540;28;20073;-72
2024/03/05 10:03:59;;;;;;;5.55;3.90;;;;;;;1.74;100.00;102502.94;5072295;28;20037;-69
2024/03/05 10:06:25;;;;;;;7.82;4.65;;;;;;;1.79;100.00;102507.97;5072215;28;20127;-72
2024/03/05 10:08:50;;;;;;;7.25;5.00;;;;;;;2.00;100.00;102532.25;5073012;28;20139;-72
2024/03/05 10:11:17;;;;;;;6.20;4.78;;;;;;;2.03;100.00;102527.59;5086868;28;20009;-73
2024/03/05 10:13:43;;;;;;;7.00;4.75;;;;;;;2.13;100.00;102538.47;5070836;28;20060;-73
2024/03/05 10:16:24;;;;;;;6.03;4.43;;;;;;;2.21;100.00;102522.00;5071809;28;20049;-72
2024/03/05 10:18:50;;;;;;;6.93;4.72;;;;;;;2.38;100.00;102529.69;5071086;28;20029;-72
2024/03/05 10:21:23;;;;;;;6.32;4.60;;;;;;;2.30;100.00;102516.94;5072495;28;20052;-70
2024/03/05 10:24:02;;;;;;;7.22;4.78;;;;;;;2.41;100.00;102510.03;5071924;28;20040;-70
2024/03/05 10:26:29;;;;;;;15.68;4.13;;;;;;;2.47;100.00;102537.03;5073792;28;20075;-69
2024/03/05 10:29:09;;;;;;;5.88;4.25;;;;;;;2.46;100.00;102527.38;5072505;28;20025;-70
2024/03/05 10:31:38;;;;;;;6.35;4.22;;;;;;;2.52;100.00;102524.31;5072643;28;20025;-71
2024/03/05 10:34:04;;;;;;;7.82;4.28;;;;;;;2.46;100.00;102492.84;5072804;28;20082;-69
2024/03/05 10:36:42;;;;;;;6.57;4.03;;;;;;;2.64;100.00;102517.28;5087803;28;20037;-69
2024/03/05 10:39:08;;;;;;;6.60;4.28;;;;;;;2.91;100.00;102521.66;5065420;28;20024;-71
2024/03/05 10:41:39;;;;;;;6.68;3.85;;;;;;;2.97;100.00;102530.06;5055748;28;20168;-71
2024/03/05 10:44:13;;;;;;;9.10;4.97;;;;;;;3.06;100.00;102532.06;5069394;28;20037;-71
2024/03/05 10:46:41;;;;;;;9.43;4.10;;;;;;;2.77;100.00;102507.50;5070121;28;20057;-71
2024/03/05 10:49:07;;;;;;;7.38;4.85;;;;;;;3.04;100.00;102539.28;5070619;28;20234;-71
2024/03/05 10:51:53;;;;;;;5.55;4.07;;;;;;;3.20;100.00;102551.53;5065526;28;20090;-71
2024/03/05 10:54:20;;;;;;;7.13;4.43;;;;;;;2.99;100.00;102521.97;5069839;28;20024;-69
2024/03/05 10:56:46;;;;;;;5.80;4.00;;;;;;;2.99;100.00;102543.25;5087339;28;20036;-69
2024/03/05 10:59:24;;;;;;;6.43;5.10;;;;;;;3.01;100.00;102512.06;5068221;28;20033;-69
2024/03/05 11:01:56;;;;;;;6.78;4.85;;;;;;;3.09;100.00;102532.81;5071771;28;20028;-70
2024/03/05 11:04:22;;;;;;;5.72;4.35;;;;;;;3.06;100.00;102518.78;5071216;28;20051;-70
2024/03/05 11:06:54;;;;;;;8.45;4.32;;;;;;;3.23;100.00;102528.22;5069535;28;20025;-70
2024/03/05 11:09:22;;;;;;;6.32;4.90;;;;;;;3.30;100.00;102547.25;5070887;28;20097;-70
2024/03/05 11:11:56;;;;;;;6.80;4.70;;;;;;;3.34;100.00;102526.59;5068007;28;20106;-70
2024/03/05 11:14:24;;;;;;;9.43;5.28;;;;;;;3.50;100.00;102525.38;5068738;28;20032;-70
2024/03/05 11:17:09;;;;;;;7.45;5.20;;;;;;;3.29;100.00;102516.31;5084604;28;20045;-69
2024/03/05 11:19:36;;;;;;;;;;;;;;;3.14;100.00;102531.53;5072622;28;20036;-70
2024/03/05 11:22:20;;;;;;;8.50;4.72;;;;;;;3.31;100.00;102527.66;5065619;28;19944;-68
2024/03/05 11:24:45;;;;;;;7.32;4.97;;;;;;;3.27;100.00;102511.06;5071918;28;20032;-69
2024/03/05 11:27:12;;;;;;;7.55;4.75;;;;;;;3.31;100.00;102538.31;5087609;28;20032;-70
2024/03/05 11:29:37;;;;;;;7.82;5.00;;;;;;;3.26;100.00;102519.19;5071338;28;20055;-69
2024/03/05 11:32:04;;;;;;;6.50;4.22;;;;;;;3.27;100.00;102520.88;5071631;28;20021;-69
2024/03/05 11:34:29;;;;;;;8.38;4.75;;;;;;;3.41;100.00;102522.53;5071266;28;20033;-70